Time;durP1;ratioP1;P1;durP2;ratioP2;P2;SDS_P1;SDS_P2;PMS_P1;PMS_P2;Temp;Humidity;BMP_temperature;BMP_pressure;BME280_temperature;BME280_humidity;BME280_pressure;Samples;Min_cycle;Max_cycle;Signal;HPM_P1;HPM_P2
2021/03/29 00:00:27;;;;;;;10.52;3.90;;;4.20;77.20;;;;;;5053588;28;20048;-82
2021/03/29 00:02:56;;;;;;;3.88;3.47;;;4.10;77.10;;;;;;5054062;28;20840;-83
2021/03/29 00:05:27;;;;;;;6.07;2.60;;;3.90;76.80;;;;;;5053483;28;20052;-83
2021/03/29 00:08:11;;;;;;;4.78;2.88;;;3.60;77.40;;;;;;5053099;28;20049;-82
2021/03/29 00:10:46;;;;;;;3.72;3.08;;;3.40;79.70;;;;;;5033388;28;20069;-82
2021/03/29 00:13:15;;;;;;;3.78;3.17;;;3.20;80.30;;;;;;5052019;28;20048;-83
2021/03/29 00:15:49;;;;;;;14.15;9.38;;;3.00;81.10;;;;;;5054061;28;20056;-83
2021/03/29 00:18:17;;;;;;;11.65;9.38;;;3.20;81.40;;;;;;5053293;28;20057;-82
2021/03/29 00:20:57;;;;;;;5.47;4.00;;;3.50;80.20;;;;;;5053449;28;20048;-82
2021/03/29 00:23:25;;;;;;;9.07;4.10;;;3.90;79.50;;;;;;5053938;28;20513;-82
2021/03/29 00:25:54;;;;;;;6.22;5.32;;;3.80;79.40;;;;;;5053158;28;20578;-82
2021/03/29 00:28:37;;;;;;;8.88;5.80;;;4.00;77.60;;;;;;5044923;28;20048;-83
2021/03/29 00:31:06;;;;;;;4.15;2.95;;;4.00;77.40;;;;;;5035783;28;20049;-82
2021/03/29 00:33:36;;;;;;;6.85;3.97;;;4.10;78.00;;;;;;5053094;28;20041;-82
2021/03/29 00:36:06;;;;;;;9.80;4.93;;;4.20;77.40;;;;;;5053025;28;20060;-82
2021/03/29 00:38:35;;;;;;;6.07;4.32;;;4.10;77.60;;;;;;5053470;28;20486;-82
2021/03/29 00:41:10;;;;;;;3.92;3.63;;;4.00;78.20;;;;;;5052433;28;20049;-82
2021/03/29 00:43:44;;;;;;;5.47;3.75;;;4.00;79.00;;;;;;5035445;28;20052;-82
2021/03/29 00:46:13;;;;;;;4.53;3.08;;;3.80;80.90;;;;;;5052933;28;20402;-83
2021/03/29 00:48:43;;;;;;;8.30;3.13;;;3.80;82.40;;;;;;5052847;28;20040;-82
2021/03/29 00:51:20;;;;;;;9.07;3.28;;;3.70;83.40;;;;;;5053120;28;20052;-82
2021/03/29 00:53:57;;;;;;;4.37;3.80;;;3.50;84.10;;;;;;5034686;28;20045;-82
2021/03/29 00:56:28;;;;;;;3.63;3.30;;;3.40;83.70;;;;;;5052631;28;20373;-82
2021/03/29 00:58:57;;;;;;;4.63;4.17;;;3.30;84.30;;;;;;5053245;28;20060;-83
2021/03/29 01:01:28;;;;;;;6.47;4.28;;;3.30;83.70;;;;;;5052365;28;20052;-83
2021/03/29 01:03:59;;;;;;;8.88;5.07;;;3.10;84.20;;;;;;5052458;28;20060;-82
2021/03/29 01:06:32;;;;;;;11.73;4.70;;;3.00;84.40;;;;;;5035301;28;20057;-82
2021/03/29 01:09:17;;;;;;;4.55;3.97;;;2.70;83.50;;;;;;5052259;28;20052;-82
2021/03/29 01:11:49;;;;;;;6.35;4.80;;;2.30;85.90;;;;;;5034987;28;20049;-83
2021/03/29 01:14:24;;;;;;;4.93;4.05;;;2.10;89.30;;;;;;5052579;28;20052;-82
2021/03/29 01:17:05;;;;;;;4.07;3.80;;;2.10;89.40;;;;;;5052239;28;20052;-82
2021/03/29 01:23:36;;;;;;;4.10;3.78;;;2.10;90.00;;;;;;5044344;28;20049;-83
2021/03/29 01:26:24;;;;;;;5.75;3.83;;;2.40;88.60;;;;;;5030748;28;20056;-83
2021/03/29 01:28:51;;;;;;;5.05;3.60;;;2.40;88.30;;;;;;5014648;28;20046;-83
2021/03/29 01:31:19;;;;;;;7.60;5.15;;;2.50;87.50;;;;;;5049068;28;20061;-83
2021/03/29 01:33:49;;;;;;;4.97;3.70;;;2.60;87.70;;;;;;5030732;28;20056;-83
2021/03/29 01:36:19;;;;;;;5.22;4.55;;;2.50;88.00;;;;;;5047642;28;20049;-83
2021/03/29 01:38:49;;;;;;;7.50;4.55;;;2.60;87.20;;;;;;5052197;28;20045;-83
2021/03/29 01:41:18;;;;;;;6.40;4.07;;;2.30;86.30;;;;;;5051123;28;20049;-87
2021/03/29 01:43:47;;;;;;;8.45;4.55;;;2.10;87.60;;;;;;5052930;28;20064;-84
2021/03/29 01:46:17;;;;;;;4.28;3.65;;;2.10;89.00;;;;;;5034248;28;20060;-83
2021/03/29 01:48:52;;;;;;;6.70;3.40;;;2.00;89.20;;;;;;5034308;28;20045;-83
2021/03/29 01:51:20;;;;;;;7.97;3.72;;;2.30;88.70;;;;;;4996322;28;20050;-83
2021/03/29 01:53:48;;;;;;;4.13;3.83;;;2.30;88.30;;;;;;5000531;28;20045;-83
2021/03/29 01:56:16;;;;;;;3.50;3.20;;;2.30;87.60;;;;;;5023549;28;20508;-83
2021/03/29 01:58:43;;;;;;;6.82;3.97;;;2.40;87.10;;;;;;5034809;28;20057;-83
2021/03/29 02:01:12;;;;;;;4.53;3.80;;;2.40;86.80;;;;;;5033707;28;20525;-83
2021/03/29 02:03:43;;;;;;;4.68;4.20;;;2.30;86.50;;;;;;5034048;28;20063;-83
2021/03/29 02:06:12;;;;;;;4.70;3.75;;;2.20;87.20;;;;;;5005152;28;20056;-83
2021/03/29 02:08:43;;;;;;;4.25;3.88;;;2.10;87.50;;;;;;5014609;28;20052;-87
2021/03/29 02:11:11;;;;;;;4.72;4.28;;;2.10;88.30;;;;;;5014767;28;20049;-87
2021/03/29 02:13:42;;;;;;;6.30;3.70;;;2.10;88.40;;;;;;4990717;28;20041;-87
2021/03/29 02:16:14;;;;;;;4.33;3.93;;;2.10;88.20;;;;;;5031030;28;20057;-87
2021/03/29 02:19:24;;;;;;;5.10;3.30;;;2.10;88.10;;;;;;5014432;28;20049;-87
2021/03/29 02:21:55;;;;;;;3.88;3.58;;;2.20;88.10;;;;;;5031863;28;20037;-87
2021/03/29 02:24:23;;;;;;;8.40;5.23;;;2.20;88.10;;;;;;5053480;28;20397;-86
2021/03/29 02:26:51;;;;;;;6.25;3.25;;;2.30;87.60;;;;;;5056228;28;20057;-87
2021/03/29 02:29:20;;;;;;;6.45;4.57;;;2.40;87.60;;;;;;5005182;28;20053;-87
2021/03/29 02:31:50;;;;;;;3.65;3.25;;;2.40;87.20;;;;;;5021360;28;20056;-87
2021/03/29 02:34:18;;;;;;;5.40;3.50;;;2.20;85.90;;;;;;5036509;28;20497;-87
2021/03/29 02:36:45;;;;;;;6.75;3.75;;;2.00;88.00;;;;;;5021150;28;20037;-86
2021/03/29 02:39:13;;;;;;;3.85;3.58;;;1.90;88.70;;;;;;5005244;28;20052;-87
2021/03/29 02:41:40;;;;;;;5.05;2.67;;;1.90;89.70;;;;;;5034023;28;20049;-87
2021/03/29 02:44:08;;;;;;;4.60;3.70;;;1.80;89.50;;;;;;5014663;28;20058;-87
2021/03/29 02:46:36;;;;;;;5.38;3.78;;;1.90;89.30;;;;;;5018084;28;20062;-87
2021/03/29 02:49:06;;;;;;;10.35;4.35;;;2.00;88.80;;;;;;4997679;28;20049;-87
2021/03/29 02:51:34;;;;;;;4.15;3.85;;;2.10;88.40;;;;;;5017663;28;20061;-87
2021/03/29 02:54:07;;;;;;;4.95;2.95;;;2.00;86.30;;;;;;4997720;28;20042;-86
2021/03/29 02:56:43;;;;;;;4.28;3.60;;;1.70;87.30;;;;;;5000968;28;20702;-86
2021/03/29 02:59:14;;;;;;;4.50;4.20;;;1.50;90.10;;;;;;4998715;28;20046;-86
2021/03/29 03:01:43;;;;;;;24.38;7.45;;;1.50;90.50;;;;;;4989849;28;20045;-86
2021/03/29 03:04:15;;;;;;;5.18;4.43;;;1.50;90.60;;;;;;4997153;28;20376;-87
2021/03/29 03:06:48;;;;;;;7.93;4.93;;;1.60;90.40;;;;;;5014377;28;20057;-86
2021/03/29 03:09:16;;;;;;;4.18;3.80;;;1.70;90.20;;;;;;4998063;28;20430;-87
2021/03/29 03:11:45;;;;;;;5.10;4.22;;;1.90;90.10;;;;;;5020064;28;20502;-86
2021/03/29 03:14:13;;;;;;;4.18;3.72;;;1.90;89.90;;;;;;5033889;28;20649;-86
2021/03/29 03:16:42;;;;;;;4.22;3.70;;;1.90;89.60;;;;;;5016894;28;20057;-87
2021/03/29 03:19:12;;;;;;;4.80;3.85;;;2.00;89.20;;;;;;5025230;28;20057;-86
2021/03/29 03:21:39;;;;;;;3.40;3.15;;;2.00;88.50;;;;;;5015057;28;20053;-86
2021/03/29 03:24:08;;;;;;;4.90;4.20;;;2.00;88.40;;;;;;5014518;28;20054;-86
2021/03/29 03:26:46;;;;;;;3.90;3.20;;;1.90;88.50;;;;;;4997960;28;20049;-87
2021/03/29 03:29:14;;;;;;;6.40;5.07;;;1.90;88.70;;;;;;4997234;28;20046;-87
2021/03/29 03:31:42;;;;;;;5.45;3.53;;;1.80;88.50;;;;;;4997811;28;20054;-86
2021/03/29 03:34:13;;;;;;;3.15;2.95;;;1.60;88.90;;;;;;5011471;28;20495;-86
2021/03/29 03:36:43;;;;;;;3.45;3.20;;;1.40;90.10;;;;;;4980806;28;20046;-86
2021/03/29 03:39:11;;;;;;;8.18;4.15;;;1.40;90.20;;;;;;4997307;28;20049;-87
2021/03/29 03:41:40;;;;;;;3.53;3.17;;;1.30;90.40;;;;;;4980661;28;20049;-87
2021/03/29 03:44:08;;;;;;;7.47;5.07;;;1.40;90.50;;;;;;5012872;28;20054;-87
2021/03/29 03:46:37;;;;;;;3.30;3.00;;;1.40;90.50;;;;;;4997660;28;20053;-87
2021/03/29 03:49:14;;;;;;;6.68;3.65;;;1.50;90.30;;;;;;4980505;28;20506;-87
2021/03/29 03:51:44;;;;;;;4.82;4.38;;;1.60;89.80;;;;;;4997673;28;20046;-86
2021/03/29 03:54:13;;;;;;;4.05;3.70;;;1.50;90.10;;;;;;4996061;28;20045;-87
2021/03/29 03:56:43;;;;;;;4.50;3.75;;;1.50;90.10;;;;;;4996102;28;20053;-87
2021/03/29 03:59:12;;;;;;;5.13;4.25;;;1.50;89.90;;;;;;4981395;28;20406;-87
2021/03/29 04:02:01;;;;;;;3.75;3.42;;;1.50;89.40;;;;;;4996473;28;20050;-87
2021/03/29 04:04:28;;;;;;;5.63;3.45;;;1.70;88.70;;;;;;4996450;28;20038;-87
2021/03/29 04:07:00;;;;;;;4.07;3.17;;;1.60;88.70;;;;;;4980920;28;20653;-87
2021/03/29 04:09:52;;;;;;;8.35;3.92;;;1.70;88.90;;;;;;4991530;28;20034;-87
2021/03/29 04:12:18;;;;;;;4.43;3.00;;;1.80;88.10;;;;;;5015446;28;20052;-87
2021/03/29 04:14:45;;;;;;;3.72;3.42;;;1.80;87.20;;;;;;4999985;28;20050;-83
2021/03/29 04:17:13;;;;;;;8.85;5.85;;;1.90;87.60;;;;;;5000191;28;20054;-83
2021/03/29 04:19:40;;;;;;;3.17;2.97;;;1.60;86.00;;;;;;5003491;28;20067;-83
2021/03/29 04:22:10;;;;;;;3.72;3.10;;;1.40;89.10;;;;;;5019111;28;20044;-83
2021/03/29 04:24:38;;;;;;;3.60;3.22;;;1.10;90.00;;;;;;5052096;28;20410;-83
2021/03/29 04:27:05;;;;;;;4.00;2.88;;;1.10;90.70;;;;;;5035137;28;20057;-83
2021/03/29 04:29:33;;;;;;;5.78;2.70;;;1.30;90.20;;;;;;5035395;28;20053;-83
2021/03/29 04:32:00;;;;;;;3.35;2.55;;;1.40;90.00;;;;;;5051434;28;20048;-83
2021/03/29 04:34:41;;;;;;;4.00;3.65;;;1.40;89.70;;;;;;5053829;28;20711;-83
2021/03/29 04:37:22;;;;;;;3.28;3.05;;;1.40;89.60;;;;;;5019009;28;20042;-87
2021/03/29 04:39:52;;;;;;;3.28;3.03;;;1.40;90.10;;;;;;5030705;28;20061;-87
2021/03/29 04:42:19;;;;;;;4.65;3.35;;;1.30;90.00;;;;;;4987160;28;20053;-87
2021/03/29 04:44:52;;;;;;;4.28;2.75;;;1.10;89.70;;;;;;5029902;28;20056;-88
2021/03/29 04:47:47;;;;;;;3.53;3.22;;;0.90;90.50;;;;;;5013959;28;20046;-87
2021/03/29 04:50:44;;;;;;;3.55;2.92;;;0.80;90.70;;;;;;4991402;28;20045;-87
2021/03/29 04:53:45;;;;;;;;;;;;;;;;;;;;;
2021/03/29 04:56:32;;;;;;;4.15;3.80;;;1.00;91.10;;;;;;4998885;28;20045;-87
2021/03/29 04:59:55;;;;;;;4.22;3.47;;;1.00;91.30;;;;;;4978004;28;20054;-88
2021/03/29 05:03:41;;;;;;;4.95;3.30;;;1.00;91.00;;;;;;4942958;28;20071;-87
2021/03/29 05:06:29;;;;;;;15.35;3.88;;;1.10;90.80;;;;;;4970583;28;20054;-87
2021/03/29 05:09:31;;;;;;;7.05;3.47;;;1.20;90.70;;;;;;4970834;28;20043;-87
2021/03/29 05:12:34;;;;;;;6.10;3.40;;;1.30;90.40;;;;;;4970910;28;20065;-88
2021/03/29 05:15:46;;;;;;;3.70;2.90;;;1.30;90.20;;;;;;4974850;28;20523;-87
2021/03/29 05:19:34;;;;;;;3.50;2.53;;;1.50;88.90;;;;;;4964927;28;20100;-87
2021/03/29 05:23:21;;;;;;;;;;;;;;;;;;;;;
2021/03/29 05:26:31;;;;;;;3.42;3.13;;;1.90;86.00;;;;;;4919867;28;20048;-88
2021/03/29 05:29:10;;;;;;;2.90;2.72;;;2.00;85.80;;;;;;4955857;28;20049;-88
2021/03/29 05:31:42;;;;;;;6.82;5.95;;;1.90;87.10;;;;;;4951121;28;20900;-87
2021/03/29 05:34:30;;;;;;;3.33;3.03;;;2.00;86.70;;;;;;4963664;28;20057;-88
2021/03/29 05:37:20;;;;;;;4.68;2.85;;;1.60;87.80;;;;;;4955349;28;20087;-88
2021/03/29 05:40:10;;;;;;;5.05;3.15;;;1.50;89.10;;;;;;4938114;28;20066;-88
2021/03/29 05:42:56;;;;;;;5.15;4.70;;;1.70;88.80;;;;;;4968241;28;20056;-88
2021/03/29 05:45:31;;;;;;;3.53;2.70;;;1.90;88.40;;;;;;5019807;28;20757;-88
2021/03/29 06:05:58;;;;;;;;;;;;;;;;;;;;;
2021/03/29 06:09:37;;;;;;;2.47;2.33;;;3.40;80.40;;;;;;4987378;28;20042;-83
2021/03/29 06:12:55;;;;;;;3.17;2.83;;;3.50;83.00;;;;;;4965780;28;20399;-84
2021/03/29 06:16:14;;;;;;;4.68;3.45;;;3.80;79.10;;;;;;4948211;28;20500;-83
2021/03/29 06:19:52;;;;;;;2.78;2.58;;;4.30;75.20;;;;;;4951802;28;20069;-84
2021/03/29 06:22:49;;;;;;;3.45;3.08;;;5.00;72.00;;;;;;4932515;28;20054;-84
2021/03/29 06:26:37;;;;;;;3.42;3.03;;;5.70;70.60;;;;;;4948740;28;20058;-89
2021/03/29 06:30:18;;;;;;;4.72;2.45;;;6.80;63.60;;;;;;4945431;28;20043;-88
2021/03/29 06:34:06;;;;;;;7.90;2.33;;;7.90;56.80;;;;;;4924788;28;20427;-88
2021/03/29 06:37:11;;;;;;;3.83;2.25;;;8.70;53.40;;;;;;4923719;29;20066;-89
2021/03/29 06:40:28;;;;;;;2.92;2.47;;;9.30;51.20;;;;;;4922740;29;20047;-88
2021/03/29 06:43:27;;;;;;;10.07;2.97;;;9.80;51.00;;;;;;4924721;29;20055;-89
2021/03/29 06:46:18;;;;;;;4.10;2.83;;;10.50;49.40;;;;;;4939443;29;20157;-89
2021/03/29 06:48:57;;;;;;;4.18;2.78;;;10.50;50.20;;;;;;4916181;29;20043;-88
2021/03/29 06:51:42;;;;;;;3.08;2.47;;;10.40;50.20;;;;;;4924274;29;20051;-88
2021/03/29 06:54:10;;;;;;;4.93;2.35;;;10.70;52.10;;;;;;4938280;29;20043;-88
2021/03/29 06:56:47;;;;;;;7.28;3.03;;;10.80;50.40;;;;;;4922078;29;20704;-88
2021/03/29 06:59:20;;;;;;;4.20;3.05;;;11.20;50.60;;;;;;4923499;29;20059;-88
2021/03/29 07:01:51;;;;;;;7.65;3.17;;;11.30;53.20;;;;;;4938681;28;20047;-88
2021/03/29 07:04:24;;;;;;;2.50;2.00;;;11.50;50.20;;;;;;4957974;28;20043;-88
2021/03/29 07:06:53;;;;;;;5.55;2.28;;;11.80;49.00;;;;;;4943165;28;20065;-88
2021/03/29 07:09:21;;;;;;;3.03;2.50;;;12.00;49.70;;;;;;4926532;28;20047;-87
2021/03/29 07:11:49;;;;;;;3.25;2.60;;;12.30;46.30;;;;;;4949283;28;20058;-87
2021/03/29 07:14:20;;;;;;;3.17;2.45;;;12.80;46.20;;;;;;4923080;28;20439;-88
2021/03/29 07:16:49;;;;;;;3.67;2.25;;;13.30;44.50;;;;;;4970294;28;20486;-87
2021/03/29 07:19:16;;;;;;;3.17;2.63;;;13.60;42.50;;;;;;5018205;28;20086;-88
2021/03/29 07:21:44;;;;;;;6.43;2.50;;;13.90;41.50;;;;;;5017582;28;20053;-88
2021/03/29 07:24:13;;;;;;;2.00;1.90;;;13.90;45.70;;;;;;5016970;28;20383;-87
2021/03/29 07:27:03;;;;;;;2.08;1.98;;;13.70;42.40;;;;;;5033748;28;20057;-87
2021/03/29 07:29:36;;;;;;;3.97;3.67;;;13.90;44.50;;;;;;5017425;28;20045;-87
2021/03/29 07:32:37;;;;;;;2.85;1.65;;;14.50;44.20;;;;;;5018075;28;20052;-87
2021/03/29 07:35:08;;;;;;;7.78;2.85;;;14.40;42.80;;;;;;5033737;28;20053;-87
2021/03/29 07:37:53;;;;;;;4.50;2.50;;;14.10;44.30;;;;;;5032886;28;20053;-87
2021/03/29 07:40:22;;;;;;;6.47;2.47;;;14.80;42.90;;;;;;5035680;28;20044;-88
2021/03/29 07:42:54;;;;;;;6.80;2.60;;;15.60;38.50;;;;;;5008226;28;20041;-88
2021/03/29 07:45:38;;;;;;;2.90;1.98;;;15.40;38.90;;;;;;5020155;28;20052;-88
2021/03/29 07:48:13;;;;;;;6.03;2.75;;;15.90;37.40;;;;;;5017641;28;20713;-88
2021/03/29 07:50:40;;;;;;;2.25;2.05;;;15.90;39.80;;;;;;5020111;28;20063;-88
2021/03/29 07:53:20;;;;;;;2.65;2.03;;;16.40;38.50;;;;;;4998505;28;20062;-88
2021/03/29 07:55:52;;;;;;;4.32;2.50;;;16.20;38.10;;;;;;5020181;28;20099;-88
2021/03/29 07:58:27;;;;;;;4.72;2.58;;;17.10;36.80;;;;;;5035698;28;20053;-89
2021/03/29 08:00:58;;;;;;;;;;;17.60;36.90;;;;;;5013068;28;20492;-89
2021/03/29 08:03:25;;;;;;;3.13;2.40;;;17.90;36.50;;;;;;5002296;28;19921;-85
2021/03/29 08:05:55;;;;;;;3.90;2.70;;;17.60;36.70;;;;;;5053566;28;20040;-84
2021/03/29 08:08:26;;;;;;;7.82;2.03;;;17.40;38.20;;;;;;5051742;28;20041;-85
2021/03/29 08:11:13;;;;;;;4.07;1.77;;;17.60;39.40;;;;;;5040347;28;20048;-84
2021/03/29 08:13:55;;;;;;;3.10;2.08;;;17.50;36.80;;;;;;5053101;28;20049;-84
2021/03/29 08:16:24;;;;;;;8.10;2.75;;;16.90;35.80;;;;;;5053534;28;20070;-86
2021/03/29 08:19:34;;;;;;;2.47;2.25;;;16.00;38.20;;;;;;5053414;28;20053;-81
2021/03/29 08:22:10;;;;;;;2.40;2.20;;;16.40;38.80;;;;;;5052938;28;20513;-81
2021/03/29 08:24:45;;;;;;;2.20;1.92;;;16.80;36.70;;;;;;5039957;28;20046;-79
2021/03/29 08:27:15;;;;;;;6.40;2.78;;;17.90;37.10;;;;;;5052304;28;20048;-80
2021/03/29 08:29:44;;;;;;;3.72;2.60;;;17.40;36.90;;;;;;5050736;28;20033;-80
2021/03/29 08:32:16;;;;;;;4.90;2.10;;;17.40;35.40;;;;;;5046220;28;20061;-80
2021/03/29 08:35:04;;;;;;;7.07;2.47;;;16.80;37.20;;;;;;5048361;28;20053;-81
2021/03/29 08:37:44;;;;;;;2.65;2.22;;;16.60;38.10;;;;;;5033044;28;20045;-85
2021/03/29 08:40:30;;;;;;;5.05;2.80;;;17.20;38.60;;;;;;5015579;28;20048;-86
2021/03/29 08:43:05;;;;;;;3.58;2.38;;;17.80;34.50;;;;;;5035148;28;20045;-85
2021/03/29 08:45:33;;;;;;;5.45;2.55;;;18.20;37.00;;;;;;5011202;28;20048;-86
2021/03/29 08:48:09;;;;;;;2.25;2.13;;;18.20;34.70;;;;;;5052901;28;20076;-87
2021/03/29 08:50:39;;;;;;;3.67;3.38;;;18.10;35.80;;;;;;5017979;28;20048;-86
2021/03/29 08:53:24;;;;;;;3.78;2.50;;;18.20;34.50;;;;;;5019260;28;20049;-86
2021/03/29 08:58:59;;;;;;;2.33;2.13;;;18.00;37.70;;;;;;4985924;28;20053;-86
2021/03/29 09:01:27;;;;;;;3.00;2.35;;;18.10;35.90;;;;;;5014154;28;20403;-85
2021/03/29 09:04:08;;;;;;;4.97;2.67;;;18.80;35.60;;;;;;4972342;28;20053;-86
2021/03/29 09:06:38;;;;;;;5.25;2.50;;;19.10;35.50;;;;;;4999416;28;20057;-87
2021/03/29 09:09:22;;;;;;;3.63;2.30;;;18.50;34.90;;;;;;4996028;28;20056;-84
2021/03/29 09:11:59;;;;;;;11.60;3.53;;;19.10;36.30;;;;;;4995210;28;20057;-86
2021/03/29 09:14:30;;;;;;;3.85;2.47;;;18.30;36.80;;;;;;5034980;28;20053;-85
2021/03/29 09:17:31;;;;;;;6.72;2.83;;;16.70;41.60;;;;;;5020790;28;20061;-85
2021/03/29 09:20:46;;;;;;;3.45;2.92;;;15.70;40.90;;;;;;5029346;28;20045;-85
2021/03/29 09:24:16;;;;;;;4.57;2.22;;;15.20;42.70;;;;;;5002628;28;20099;-86
2021/03/29 09:27:15;;;;;;;2.70;2.47;;;15.00;48.50;;;;;;4887218;29;20036;-85
2021/03/29 09:29:48;;;;;;;3.97;2.70;;;15.20;45.00;;;;;;4935769;29;20047;-85
2021/03/29 09:32:23;;;;;;;3.90;2.45;;;14.90;42.90;;;;;;4932434;28;20051;-85
2021/03/29 09:34:52;;;;;;;5.55;2.15;;;14.80;47.70;;;;;;4914543;29;20095;-84
2021/03/29 09:37:23;;;;;;;5.38;2.58;;;15.00;44.90;;;;;;4924376;28;20055;-84
2021/03/29 09:40:17;;;;;;;2.47;2.28;;;15.10;51.30;;;;;;4998540;28;20064;-84
2021/03/29 09:42:47;;;;;;;6.25;2.83;;;15.20;46.00;;;;;;4977971;28;20049;-84
2021/03/29 09:45:27;;;;;;;2.42;2.00;;;15.10;45.30;;;;;;5031530;28;20037;-84
2021/03/29 09:48:16;;;;;;;4.22;3.03;;;15.40;46.00;;;;;;5013775;28;20045;-84
2021/03/29 09:50:47;;;;;;;4.00;2.40;;;15.60;43.50;;;;;;5014712;28;20041;-84
2021/03/29 09:53:22;;;;;;;3.63;2.25;;;15.40;43.10;;;;;;5015417;28;20045;-84
2021/03/29 09:55:57;;;;;;;5.78;3.47;;;15.30;43.20;;;;;;5033834;28;20371;-83
2021/03/29 09:58:31;;;;;;;4.38;2.22;;;15.30;43.00;;;;;;5050993;28;20048;-83
2021/03/29 10:01:02;;;;;;;3.17;2.22;;;15.30;41.40;;;;;;5052016;28;20041;-84
2021/03/29 10:04:01;;;;;;;8.15;2.15;;;15.50;40.10;;;;;;5036403;28;20064;-84
2021/03/29 10:06:29;;;;;;;2.95;2.13;;;15.30;39.40;;;;;;5032885;28;20045;-84
2021/03/29 10:09:06;;;;;;;3.65;2.00;;;15.40;39.20;;;;;;5050929;28;20041;-83
2021/03/29 10:11:49;;;;;;;2.40;2.17;;;15.50;39.80;;;;;;5051615;28;20482;-86
2021/03/29 10:14:19;;;;;;;2.33;1.70;;;15.70;41.70;;;;;;5045097;28;20053;-85
2021/03/29 10:16:51;;;;;;;5.57;2.33;;;15.70;37.90;;;;;;5051872;28;20053;-85
2021/03/29 10:19:28;;;;;;;4.45;2.70;;;15.40;40.70;;;;;;5052050;28;20402;-85
2021/03/29 10:22:04;;;;;;;3.50;2.15;;;15.30;40.80;;;;;;5051617;28;20526;-86
2021/03/29 10:25:07;;;;;;;3.22;2.28;;;15.20;40.60;;;;;;5017161;28;20042;-87
2021/03/29 10:27:50;;;;;;;10.50;2.80;;;15.40;39.80;;;;;;5052474;28;20052;-85
2021/03/29 10:30:50;;;;;;;2.10;1.45;;;15.30;36.80;;;;;;5033852;28;20041;-86
2021/03/29 10:33:30;;;;;;;3.70;2.25;;;15.70;40.10;;;;;;5040090;28;20048;-86
2021/03/29 10:36:04;;;;;;;4.47;2.47;;;15.80;37.50;;;;;;5033382;28;20045;-85
2021/03/29 10:38:40;;;;;;;3.47;2.55;;;16.30;37.60;;;;;;5051193;28;20064;-86
2021/03/29 10:41:10;;;;;;;2.42;2.22;;;16.40;36.20;;;;;;5045170;28;20048;-86
2021/03/29 10:43:47;;;;;;;6.55;2.92;;;16.30;36.50;;;;;;4993498;28;20052;-87
2021/03/29 10:46:19;;;;;;;3.90;2.40;;;15.80;36.90;;;;;;5027164;28;20379;-88
2021/03/29 10:48:50;;;;;;;3.67;1.95;;;15.60;36.30;;;;;;5005068;28;20045;-88
2021/03/29 10:51:18;;;;;;;;;;;15.60;37.10;;;;;;5019025;28;20057;-86
2021/03/29 10:53:45;;;;;;;5.88;3.05;;;15.80;35.50;;;;;;5054190;28;19924;-88
2021/03/29 10:56:41;;;;;;;1.90;1.77;;;16.00;40.20;;;;;;5020071;28;20037;-86
2021/03/29 10:59:09;;;;;;;9.48;2.15;;;16.00;37.50;;;;;;5032854;28;20041;-86
2021/03/29 11:01:39;;;;;;;3.03;2.05;;;16.00;35.70;;;;;;5009658;28;20046;-86
2021/03/29 11:05:20;;;;;;;;;;;;;;;;;;;;;
2021/03/29 11:09:10;;;;;;;5.32;2.47;;;16.10;34.70;;;;;;4992470;28;20057;-88
2021/03/29 11:11:39;;;;;;;3.95;1.70;;;16.30;36.40;;;;;;4981456;28;20064;-87
2021/03/29 11:14:18;;;;;;;3.65;1.77;;;16.20;33.00;;;;;;4998972;28;20072;-87
2021/03/29 11:16:56;;;;;;;5.20;2.28;;;16.30;34.60;;;;;;4997435;28;20375;-88
2021/03/29 11:20:12;;;;;;;4.22;2.60;;;16.40;33.50;;;;;;4974647;28;20057;-89
2021/03/29 11:23:20;;;;;;;2.90;2.00;;;16.30;32.50;;;;;;4978481;28;20046;-87
2021/03/29 11:26:22;;;;;;;4.57;1.50;;;16.10;34.80;;;;;;4983885;28;20041;-88
2021/03/29 11:30:18;;;;;;;2.60;2.40;;;16.20;32.10;;;;;;4962756;28;20514;-88
2021/03/29 11:33:35;;;;;;;3.42;2.80;;;16.30;32.50;;;;;;4958585;28;20074;-89
2021/03/29 11:41:38;;;;;;;2.38;1.77;;;16.60;33.40;;;;;;4860389;29;20064;-88
2021/03/29 11:44:06;;;;;;;9.50;1.75;;;16.50;31.90;;;;;;4904755;28;20059;-87
2021/03/29 11:46:34;;;;;;;6.60;2.17;;;16.70;34.10;;;;;;4957892;28;20069;-77
2021/03/29 11:49:02;;;;;;;2.00;1.80;;;16.70;31.80;;;;;;4987700;28;20043;-78
2021/03/29 11:51:31;;;;;;;2.53;2.33;;;16.70;30.80;;;;;;4989403;28;20064;-76
2021/03/29 11:53:58;;;;;;;3.78;1.63;;;16.80;32.00;;;;;;5002012;28;20342;-75
2021/03/29 11:56:26;;;;;;;4.97;2.00;;;16.70;28.90;;;;;;4995340;28;20049;-75
2021/03/29 11:58:54;;;;;;;2.17;1.30;;;17.00;29.70;;;;;;4997037;28;20062;-77
2021/03/29 12:01:40;;;;;;;4.47;2.55;;;17.40;32.20;;;;;;5012164;28;20493;-76
2021/03/29 12:04:25;;;;;;;2.42;1.80;;;17.50;32.50;;;;;;5035817;28;20050;-78
2021/03/29 12:06:58;;;;;;;6.82;2.22;;;17.60;31.20;;;;;;5048508;28;20052;-82
2021/03/29 12:09:39;;;;;;;2.60;1.63;;;17.60;33.00;;;;;;5024913;28;20041;-79
2021/03/29 12:12:07;;;;;;;3.17;2.05;;;17.30;33.00;;;;;;5031142;28;20053;-83
2021/03/29 12:14:37;;;;;;;6.65;2.22;;;17.40;30.50;;;;;;5040029;28;20064;-75
2021/03/29 12:17:09;;;;;;;5.90;2.53;;;17.40;31.90;;;;;;5049340;28;20071;-74
2021/03/29 12:19:41;;;;;;;2.10;1.90;;;17.60;35.40;;;;;;5051622;28;20052;-78
2021/03/29 12:22:23;;;;;;;2.67;1.80;;;17.90;31.50;;;;;;5051719;28;20041;-76
2021/03/29 12:25:14;;;;;;;3.83;1.88;;;17.60;32.20;;;;;;5036877;27;20369;-75
2021/03/29 12:27:42;;;;;;;3.63;2.38;;;17.60;31.00;;;;;;5007141;28;20050;-78
2021/03/29 12:30:13;;;;;;;4.75;1.80;;;17.30;32.20;;;;;;5006946;28;20042;-77
2021/03/29 12:32:44;;;;;;;4.15;2.05;;;17.40;29.80;;;;;;5006700;28;20042;-78
2021/03/29 12:35:19;;;;;;;1.80;1.70;;;17.50;31.00;;;;;;5007419;28;20054;-78
2021/03/29 12:37:48;;;;;;;15.32;2.40;;;17.70;32.80;;;;;;5008352;28;20057;-77
2021/03/29 12:40:24;;;;;;;5.47;1.98;;;17.70;29.70;;;;;;5007673;28;20046;-78
2021/03/29 12:43:05;;;;;;;6.10;2.53;;;17.60;30.80;;;;;;5002274;28;20066;-77
2021/03/29 12:45:35;;;;;;;7.88;2.72;;;17.80;30.60;;;;;;5003970;28;20503;-77
2021/03/29 12:48:07;;;;;;;2.10;2.00;;;17.70;29.10;;;;;;5007642;28;20057;-77
2021/03/29 12:50:34;;;;;;;4.50;2.38;;;17.70;31.80;;;;;;5007886;28;20045;-77
2021/03/29 12:53:03;;;;;;;7.45;2.33;;;17.90;28.40;;;;;;5007520;28;20050;-77
2021/03/29 12:55:33;;;;;;;3.00;2.70;;;17.70;29.60;;;;;;5007266;28;20050;-77
2021/03/29 12:58:01;;;;;;;3.85;2.75;;;17.70;30.10;;;;;;5006062;28;20049;-77
2021/03/29 13:00:29;;;;;;;3.95;2.53;;;17.80;31.10;;;;;;5007644;28;20057;-77
2021/03/29 13:02:59;;;;;;;3.00;2.70;;;17.60;29.90;;;;;;5006401;28;20050;-77
2021/03/29 13:08:04;;;;;;;9.70;2.70;;;17.90;29.40;;;;;;5009105;28;20054;-80
2021/03/29 13:10:50;;;;;;;2.85;2.30;;;17.90;30.10;;;;;;5007908;28;20050;-80
2021/03/29 13:13:19;;;;;;;6.15;1.90;;;17.90;30.20;;;;;;5008976;28;20492;-90
2021/03/29 13:16:13;;;;;;;3.42;2.45;;;17.90;32.20;;;;;;5009001;28;20054;-90
2021/03/29 13:19:52;;;;;;;5.50;2.72;;;18.00;30.70;;;;;;4987760;28;20054;-88
2021/03/29 13:22:30;;;;;;;2.42;1.80;;;17.90;32.70;;;;;;4972632;28;20069;-84
2021/03/29 13:24:57;;;;;;;3.55;2.15;;;18.00;28.90;;;;;;4971979;28;20050;-84
2021/03/29 13:27:25;;;;;;;6.88;2.83;;;18.10;31.50;;;;;;4973131;28;20053;-84
2021/03/29 13:29:52;;;;;;;6.18;3.10;;;18.10;27.90;;;;;;4989879;28;20051;-80
2021/03/29 13:32:21;;;;;;;5.45;2.00;;;18.20;27.50;;;;;;4988985;28;20053;-82
2021/03/29 13:34:48;;;;;;;4.97;2.38;;;18.10;28.30;;;;;;4984355;28;20054;-83
2021/03/29 13:37:16;;;;;;;3.45;1.90;;;18.10;29.10;;;;;;4976534;28;20042;-84
2021/03/29 13:39:45;;;;;;;4.82;2.40;;;18.10;29.10;;;;;;4975401;28;20047;-84
2021/03/29 13:42:12;;;;;;;3.30;1.77;;;18.20;28.70;;;;;;4986350;28;20042;-84
2021/03/29 13:44:41;;;;;;;2.67;2.30;;;18.30;30.00;;;;;;4994366;28;20699;-84
2021/03/29 13:47:09;;;;;;;4.03;2.10;;;18.30;26.80;;;;;;4996266;28;20487;-83
2021/03/29 13:49:39;;;;;;;3.75;2.88;;;18.40;28.30;;;;;;4995615;28;20057;-84
2021/03/29 13:52:07;;;;;;;4.90;2.22;;;18.40;29.10;;;;;;4994599;28;20047;-84
2021/03/29 13:54:37;;;;;;;2.30;2.10;;;18.20;29.80;;;;;;4984165;28;20408;-84
2021/03/29 13:57:09;;;;;;;8.07;2.97;;;18.10;28.20;;;;;;4976494;28;20392;-89
2021/03/29 13:59:36;;;;;;;2.28;2.05;;;18.30;28.90;;;;;;4975393;28;20050;-89
2021/03/29 14:02:09;;;;;;;10.13;3.17;;;18.30;29.00;;;;;;4974966;28;20039;-89
2021/03/29 14:04:43;;;;;;;5.35;2.22;;;18.40;28.00;;;;;;4974349;28;20054;-84
2021/03/29 14:07:12;;;;;;;7.47;2.35;;;18.40;28.00;;;;;;4976889;28;20055;-84
2021/03/29 14:09:42;;;;;;;1.67;1.58;;;18.50;29.70;;;;;;4975873;28;20043;-89
2021/03/29 14:12:10;;;;;;;2.70;2.00;;;18.40;29.10;;;;;;4968320;28;20062;-89
2021/03/29 14:14:38;;;;;;;5.05;2.60;;;18.30;28.90;;;;;;4994904;28;20419;-89
2021/03/29 14:17:06;;;;;;;8.15;2.45;;;18.20;29.90;;;;;;4995612;28;20039;-83
2021/03/29 14:19:57;;;;;;;2.75;2.28;;;18.50;29.10;;;;;;4995700;28;20050;-84
2021/03/29 14:22:56;;;;;;;11.07;2.80;;;18.50;27.70;;;;;;4945134;28;20038;-85
2021/03/29 14:25:32;;;;;;;7.93;3.78;;;18.40;28.90;;;;;;4993692;28;20053;-83
2021/03/29 14:28:03;;;;;;;4.50;2.45;;;18.40;27.80;;;;;;4986763;28;20058;-85